Time;durP1;ratioP1;P1;durP2;ratioP2;P2;SDS_P1;SDS_P2;PMS_P1;PMS_P2;Temp;Humidity;BMP_temperature;BMP_pressure;BME280_temperature;BME280_humidity;BME280_pressure;Samples;Min_cycle;Max_cycle;Signal;HPM_P1;HPM_P2
2022/06/09 00:09:30;;;;;;;3.75;0.82;;;14.80;99.90;;;;;;20718488;28;20057;-80
2022/06/09 00:19:32;;;;;;;2.85;1.40;;;14.80;99.90;;;;;;20771076;28;20045;-80
2022/06/09 00:29:36;;;;;;;2.85;0.93;;;14.70;99.90;;;;;;20768006;28;20626;-80
2022/06/09 00:39:37;;;;;;;3.30;1.05;;;14.60;99.90;;;;;;20708952;28;20049;-80
2022/06/09 00:49:56;;;;;;;3.80;1.63;;;14.60;99.90;;;;;;20736772;28;20052;-80
2022/06/09 01:00:04;;;;;;;5.05;1.33;;;14.40;99.90;;;;;;20759396;28;20807;-80
2022/06/09 01:10:06;;;;;;;8.10;2.22;;;14.30;99.90;;;;;;20725589;28;20674;-80
2022/06/09 01:20:30;;;;;;;5.85;1.30;;;14.20;99.90;;;;;;20767574;28;20056;-80
2022/06/09 01:30:44;;;;;;;3.03;1.90;;;14.00;99.90;;;;;;20741307;28;20037;-80
2022/06/09 01:40:45;;;;;;;4.55;1.02;;;13.90;99.90;;;;;;20711021;28;20048;-80
2022/06/09 01:51:00;;;;;;;2.28;1.00;;;13.80;99.90;;;;;;20755207;28;20052;-80
2022/06/09 02:01:02;;;;;;;5.38;1.10;;;13.70;99.90;;;;;;20749101;28;20064;-80
2022/06/09 02:11:11;;;;;;;4.13;1.13;;;13.60;99.90;;;;;;20727690;28;20041;-80
2022/06/09 02:21:20;;;;;;;3.38;0.82;;;13.50;99.90;;;;;;20747026;28;20045;-80
2022/06/09 02:31:23;;;;;;;2.03;1.08;;;13.50;99.90;;;;;;20762440;28;20480;-81
2022/06/09 02:41:24;;;;;;;2.70;1.10;;;13.40;99.90;;;;;;20746927;28;20056;-80
2022/06/09 02:51:29;;;;;;;2.65;0.90;;;13.30;99.90;;;;;;20749439;28;20049;-80
2022/06/09 03:01:30;;;;;;;2.65;0.90;;;13.30;99.90;;;;;;20742116;28;20486;-80
2022/06/09 03:11:31;;;;;;;3.80;1.60;;;13.30;99.90;;;;;;20713291;28;20063;-80
2022/06/09 03:21:32;;;;;;;1.20;0.50;;;13.30;99.90;;;;;;20757905;28;20501;-80
2022/06/09 03:31:34;;;;;;;2.55;0.90;;;13.30;99.90;;;;;;20740254;28;20147;-81
2022/06/09 03:41:35;;;;;;;2.78;1.45;;;13.30;99.90;;;;;;20744882;28;20045;-81
2022/06/09 03:51:36;;;;;;;1.23;0.40;;;13.20;99.90;;;;;;20708587;28;20041;-80
2022/06/09 04:01:37;;;;;;;1.15;0.50;;;13.20;99.90;;;;;;20723603;28;20373;-80
2022/06/09 04:11:41;;;;;;;1.23;0.55;;;13.20;99.90;;;;;;20727322;28;20392;-80
2022/06/09 04:21:43;;;;;;;3.78;0.80;;;13.20;99.90;;;;;;20730682;28;20037;-80
2022/06/09 04:31:45;;;;;;;1.88;1.08;;;13.30;99.90;;;;;;20771030;28;20057;-81
2022/06/09 04:41:46;;;;;;;1.33;0.85;;;13.40;99.90;;;;;;20772631;28;20045;-80
2022/06/09 04:51:47;;;;;;;1.23;0.43;;;13.60;99.90;;;;;;20746385;28;20147;-80
2022/06/09 05:01:48;;;;;;;1.83;0.60;;;13.90;99.90;;;;;;20746499;28;20045;-81
2022/06/09 05:11:49;;;;;;;3.58;1.70;;;14.10;99.90;;;;;;20734152;28;20041;-80
2022/06/09 05:21:50;;;;;;;1.38;0.60;;;14.30;99.90;;;;;;20753793;28;20044;-80
2022/06/09 05:31:52;;;;;;;1.88;0.40;;;14.70;99.90;;;;;;20749957;28;20050;-80
2022/06/09 05:52:13;;;;;;;1.98;0.70;;;15.30;99.90;;;;;;20750827;28;20056;-80
2022/06/09 06:02:15;;;;;;;3.45;0.43;;;15.70;99.90;;;;;;20731232;28;20167;-81
2022/06/09 06:12:17;;;;;;;4.15;0.82;;;16.00;99.90;;;;;;20758423;23;20056;-39
2022/06/09 06:22:18;;;;;;;1.58;0.73;;;16.00;99.90;;;;;;20712574;28;20049;-40
2022/06/09 06:32:19;;;;;;;2.03;0.60;;;15.90;99.90;;;;;;20692526;28;20041;-40
2022/06/09 06:42:20;;;;;;;2.92;0.60;;;15.60;99.90;;;;;;20686963;28;20272;-40
2022/06/09 06:52:22;;;;;;;1.60;0.70;;;15.50;99.90;;;;;;20694659;28;20324;-41
2022/06/09 07:02:23;;;;;;;1.02;0.43;;;15.60;99.90;;;;;;20709655;28;20037;-41
2022/06/09 07:12:25;;;;;;;6.60;0.88;;;15.60;99.90;;;;;;20711952;28;20100;-41
2022/06/09 07:22:26;;;;;;;1.75;0.70;;;15.80;99.90;;;;;;20708488;28;20037;-41
2022/06/09 07:32:28;;;;;;;1.65;0.80;;;16.20;99.90;;;;;;20699936;28;20060;-41
2022/06/09 07:42:29;;;;;;;2.90;0.60;;;16.40;99.90;;;;;;20684212;28;20077;-41
2022/06/09 07:52:30;;;;;;;2.17;1.00;;;16.50;99.90;;;;;;20687984;28;20404;-41
2022/06/09 08:02:34;;;;;;;1.42;0.40;;;16.70;99.90;;;;;;20707267;28;20508;-41
2022/06/09 08:12:36;;;;;;;0.93;0.38;;;16.70;99.90;;;;;;20708395;28;20264;-41
2022/06/09 08:22:43;;;;;;;3.00;0.77;;;16.80;99.90;;;;;;20716997;28;20053;-41
2022/06/09 08:32:44;;;;;;;3.30;0.50;;;17.10;99.90;;;;;;20690866;28;20065;-39
2022/06/09 08:43:03;;;;;;;1.35;0.50;;;17.00;99.90;;;;;;20713874;28;20042;-39
2022/06/09 08:53:09;;;;;;;1.25;0.50;;;17.10;99.90;;;;;;20687681;28;20052;-39
2022/06/09 09:03:18;;;;;;;1.63;0.40;;;17.30;99.90;;;;;;20710023;28;20041;-39
2022/06/09 09:13:59;;;;;;;1.50;0.50;;;17.40;99.90;;;;;;20717724;28;20046;-39
2022/06/09 09:24:06;;;;;;;0.93;0.28;;;17.70;99.90;;;;;;20717150;28;21321;-39
2022/06/09 09:34:17;;;;;;;0.80;0.30;;;18.10;99.90;;;;;;20716353;28;20348;-39
2022/06/09 09:44:22;;;;;;;0.95;0.45;;;18.20;99.90;;;;;;20709411;28;20041;-39
2022/06/09 09:54:38;;;;;;;1.20;0.40;;;18.30;99.90;;;;;;20708566;28;20040;-39
2022/06/09 10:15:10;;;;;;;1.52;0.35;;;18.60;99.90;;;;;;20715288;28;20060;-39
2022/06/09 10:25:17;;;;;;;1.95;0.47;;;18.90;99.90;;;;;;20723045;28;20319;-39
2022/06/09 10:35:43;;;;;;;5.43;0.80;;;18.80;99.90;;;;;;20708362;28;20042;-39
2022/06/09 10:45:53;;;;;;;2.90;0.68;;;19.30;99.90;;;;;;20712006;28;20486;-39
2022/06/09 10:56:21;;;;;;;1.95;0.55;;;19.90;99.90;;;;;;20712549;28;20037;-39
2022/06/09 11:06:46;;;;;;;5.90;0.60;;;19.80;99.90;;;;;;20711449;28;20532;-40
2022/06/09 11:16:56;;;;;;;1.08;0.35;;;19.90;99.90;;;;;;20702179;28;20372;-40
2022/06/09 11:27:11;;;;;;;1.20;0.43;;;20.20;99.90;;;;;;20698650;28;20053;-40
2022/06/09 11:37:37;;;;;;;1.52;0.50;;;20.40;99.90;;;;;;20723547;28;20233;-39
2022/06/09 11:47:39;;;;;;;4.45;0.93;;;20.50;99.90;;;;;;20727861;28;20042;-40
2022/06/09 11:57:40;;;;;;;2.00;1.02;;;20.50;99.90;;;;;;20745709;28;20040;-40
2022/06/09 12:08:19;;;;;;;6.35;1.13;;;20.50;99.90;;;;;;20730875;28;20049;-40
2022/06/09 12:18:23;;;;;;;2.30;0.85;;;20.60;99.90;;;;;;20709151;28;20049;-40
2022/06/09 12:28:49;;;;;;;2.35;0.75;;;20.60;99.90;;;;;;20704272;28;20053;-40
2022/06/09 12:38:56;;;;;;;1.55;0.55;;;20.80;99.90;;;;;;20714125;28;20187;-40
2022/06/09 12:48:58;;;;;;;1.10;0.63;;;20.70;99.90;;;;;;20709052;28;21242;-40
2022/06/09 12:59:04;;;;;;;0.95;0.40;;;20.90;99.90;;;;;;20686494;28;20041;-40
2022/06/09 13:09:24;;;;;;;1.48;0.50;;;20.90;99.90;;;;;;20680652;28;20157;-39
2022/06/09 13:19:29;;;;;;;1.92;0.70;;;21.30;99.90;;;;;;20673386;28;20543;-39
2022/06/09 13:29:37;;;;;;;6.13;1.02;;;21.70;99.90;;;;;;20712255;28;20053;-39
2022/06/09 13:40:00;;;;;;;3.45;0.80;;;21.50;99.90;;;;;;20705046;28;20608;-39
2022/06/09 13:50:04;;;;;;;1.35;0.50;;;21.10;99.90;;;;;;20713788;28;20389;-39
2022/06/09 14:00:28;;;;;;;2.85;0.73;;;21.20;99.90;;;;;;20696276;28;20049;-39
2022/06/09 14:10:31;;;;;;;10.95;2.28;;;21.40;99.90;;;;;;20721247;28;21579;-39
2022/06/09 14:20:34;;;;;;;1.63;0.75;;;21.10;99.90;;;;;;20673107;28;20464;-39
2022/06/09 14:30:35;;;;;;;3.72;0.40;;;21.10;99.90;;;;;;20691463;28;20053;-39
2022/06/09 14:40:40;;;;;;;2.15;0.55;;;21.00;99.90;;;;;;20691140;28;20077;-40
2022/06/09 14:50:41;;;;;;;0.80;0.40;;;21.00;99.90;;;;;;20679780;28;20034;-39
2022/06/09 15:00:44;;;;;;;4.15;1.27;;;21.00;99.90;;;;;;20680041;28;20132;-40
2022/06/09 15:10:49;;;;;;;1.05;0.38;;;21.20;99.90;;;;;;20678161;28;20084;-40
2022/06/09 15:20:52;;;;;;;1.17;0.50;;;21.00;99.90;;;;;;20701555;28;20049;-40
2022/06/09 15:30:55;;;;;;;0.80;0.30;;;21.00;99.90;;;;;;20686229;28;20564;-39
2022/06/09 15:40:56;;;;;;;0.93;0.20;;;21.00;99.90;;;;;;20701321;28;20626;-39
2022/06/09 15:50:58;;;;;;;1.17;0.40;;;20.60;99.90;;;;;;20664956;28;20120;-40
2022/06/09 16:00:59;;;;;;;1.10;0.35;;;20.50;99.90;;;;;;20672663;28;20149;-40
2022/06/09 16:11:00;;;;;;;1.38;0.82;;;20.40;99.90;;;;;;20699652;28;20037;-40
2022/06/09 16:21:01;;;;;;;1.17;0.40;;;20.40;99.90;;;;;;20719414;28;20057;-40
2022/06/09 16:31:02;;;;;;;1.30;0.40;;;20.40;99.90;;;;;;20723806;28;20052;-39
2022/06/09 16:41:04;;;;;;;0.55;0.22;;;20.30;99.90;;;;;;20726000;28;20563;-40
2022/06/09 16:51:06;;;;;;;8.15;0.82;;;20.20;99.90;;;;;;20739580;28;20045;-40
2022/06/09 17:01:08;;;;;;;0.73;0.30;;;20.20;99.90;;;;;;20725956;28;20558;-40
2022/06/09 17:11:13;;;;;;;2.45;0.40;;;19.90;99.90;;;;;;20724247;28;20050;-39
2022/06/09 17:21:17;;;;;;;0.82;0.40;;;19.70;99.90;;;;;;20733439;28;20049;-40
2022/06/09 17:31:18;;;;;;;11.40;0.40;;;19.90;99.90;;;;;;20720932;28;20512;-40
2022/06/09 17:41:19;;;;;;;1.38;0.70;;;19.70;99.90;;;;;;20699947;28;20057;-40
2022/06/09 17:51:20;;;;;;;2.90;0.95;;;19.60;99.90;;;;;;20736744;28;20038;-40
2022/06/09 18:01:22;;;;;;;1.90;0.82;;;19.40;99.90;;;;;;20712272;28;20045;-40
2022/06/09 18:11:24;;;;;;;0.68;0.30;;;19.40;99.90;;;;;;20712031;28;20033;-39
2022/06/09 18:21:27;;;;;;;1.65;0.45;;;19.20;99.90;;;;;;20674994;28;20053;-40
2022/06/09 18:31:28;;;;;;;1.30;0.35;;;19.10;99.90;;;;;;20701685;28;20404;-39
2022/06/09 18:41:29;;;;;;;1.08;0.50;;;19.10;99.90;;;;;;20710592;28;20049;-39
2022/06/09 18:51:31;;;;;;;2.72;0.50;;;18.80;99.90;;;;;;20722033;28;20049;-39
2022/06/09 19:01:32;;;;;;;1.25;0.43;;;18.60;99.90;;;;;;20713827;28;20045;-40
2022/06/09 19:11:33;;;;;;;1.52;0.68;;;18.40;99.90;;;;;;20713400;28;20041;-39
2022/06/09 19:21:35;;;;;;;2.88;1.30;;;18.40;99.90;;;;;;20713628;28;20141;-40
2022/06/09 19:31:36;;;;;;;2.95;0.30;;;18.20;99.90;;;;;;20717548;28;20134;-40
2022/06/09 19:41:37;;;;;;;1.48;0.45;;;18.00;99.90;;;;;;20708845;28;20053;-40
2022/06/09 19:51:39;;;;;;;3.10;0.77;;;17.70;99.90;;;;;;20721037;28;20362;-39
2022/06/09 20:01:40;;;;;;;1.38;1.05;;;17.50;99.90;;;;;;20737401;28;20295;-39
2022/06/09 20:11:41;;;;;;;11.40;0.50;;;17.30;99.90;;;;;;20728837;28;20049;-39
2022/06/09 20:21:42;;;;;;;1.60;0.40;;;17.10;99.90;;;;;;20732527;28;20087;-39
2022/06/09 20:31:43;;;;;;;3.70;0.60;;;16.90;99.90;;;;;;20727655;28;20037;-39
2022/06/09 20:41:44;;;;;;;1.30;0.43;;;16.60;99.90;;;;;;20715844;28;20068;-39
2022/06/09 20:51:45;;;;;;;3.88;0.63;;;16.70;99.90;;;;;;20734240;28;20056;-39
2022/06/09 21:01:47;;;;;;;2.47;0.73;;;16.70;99.90;;;;;;20718471;28;20617;-39
2022/06/09 21:22:09;;;;;;;2.20;0.40;;;16.50;99.90;;;;;;20728379;28;20111;-41
2022/06/09 21:32:11;;;;;;;2.95;0.60;;;16.30;99.90;;;;;;20707184;28;20480;-41
2022/06/09 21:42:13;;;;;;;3.00;0.57;;;16.00;99.90;;;;;;20723358;28;20537;-41
2022/06/09 21:52:15;;;;;;;2.72;0.65;;;16.00;99.90;;;;;;20726626;28;20053;-41
2022/06/09 22:02:19;;;;;;;2.08;0.50;;;15.80;99.90;;;;;;20715301;28;20509;-41
2022/06/09 22:12:23;;;;;;;1.65;0.43;;;15.60;99.90;;;;;;20711206;28;20476;-41
2022/06/09 22:22:24;;;;;;;1.15;0.47;;;15.50;99.90;;;;;;20715908;28;20077;-41
2022/06/09 22:32:25;;;;;;;1.65;0.40;;;15.40;99.90;;;;;;20720194;28;20046;-41
2022/06/09 22:42:28;;;;;;;1.52;0.47;;;15.20;99.90;;;;;;20719504;28;20376;-41
2022/06/09 22:52:29;;;;;;;2.38;0.45;;;15.20;99.90;;;;;;20712525;28;20144;-41
2022/06/09 23:02:32;;;;;;;1.00;0.47;;;15.10;99.90;;;;;;20692872;28;20068;-41
2022/06/09 23:12:34;;;;;;;4.68;0.60;;;15.00;99.90;;;;;;20705829;28;20041;-41
2022/06/09 23:22:35;;;;;;;1.13;0.63;;;14.90;99.90;;;;;;20700789;28;20554;-41
2022/06/09 23:32:36;;;;;;;1.75;0.73;;;14.80;99.90;;;;;;20704737;28;20044;-41
2022/06/09 23:42:37;;;;;;;1.65;0.70;;;14.80;99.90;;;;;;20701939;28;20405;-41
2022/06/09 23:52:38;;;;;;;2.35;0.63;;;14.80;99.90;;;;;;20704959;28;20068;-41
